MET'MAP v2.0
soon released !

Expected late october,
this new version will be
more efficient, smarter,
and hosted on a brand new
server x3 powerfull...
...and still free !


Not compatible ?
Try the mobile version !

LOG IN : | Subscribe | Disclaimer | Who is Orbifly ? |
ICAO code :

TAF - LFBF Toulouse / Francazal - 30 Nov 2020 12:21 UTC
Data Sources :     NOAA   


- Airport Elevation : 535 ft
- No reported NOTAMs.


LFBF - Toulouse / Francazal

Latest METAR recorded : 0000/00/00 L :30 TAF LELL 300800Z 3009/0109 VRB03KT 9999 FEW030 TX16/3013Z TN06/0106Z PROB40 TEMPO 3018/3024 3000 BR
NO TAF


MET'MAP, your aeronautical weather chart ! - Copyright ORBIFLY December 2007

Programming & Development : Alexandra Zaïnal
Co-Developer : Marc-Olivier Méhu
Technical & hardware support : Manuel Goepfert
Concept & Financing : Baudouin d'Aumeries